Strona główna
METAR-TAF:

METAR-TAF

Lotnisko :

Port lotniczy Turyn

Turyn, Włochy

Szerokość geograficzna: 45-13N, Długość geograficzna: 007-39E, wysokość: 301 m

Aktualna obserwacja pogody

Raport powstał 32 minut temu, godzina 11:50 UTC
Wiatr 5 kt od wschodnio-północny wschód, zmienny między północ i południowy wschód
Temperatura 26°C
Wilgotność 54%
Ciśnienie 1013 hPa
Widzialność 10 km lub więcej
Mało chmury na wysokości 4000 ft

METAR: LIMF 181150Z 06005KT 360V130 9999 FEW040 26/16 Q1013

czas: 14:22 (12:22 UTC)

Prognoza

Raport powstał 1 godzina i 22 minut temu, godzina 11:00 UTC
Prognoza ważna od 18 godzina 12 UTC do 19 godzina 12 UTC
Wiatr 5 kt z kierunków zmiennych
Widzialność 10 km lub więcej
Rozproszone chmury na wysokości 7000 ft
Prawdopodobieństwo 30% :
Przejściowo
od 18 godzina 20 UTC do 18 godzina 24 UTC
burza, deszcz

TAF: LIMF 181100Z 1812/1912 VRB05KT 9999 SCT070 PROB30 TEMPO 1820/1824 TSRA

Obserwacja i prognoza pogody dla ponad 4000 lotnisk (raport METAR i TAF).

Dostępne stacje oznaczono żółtymi i czerwonymi punktami na mapie.

Najedź kursorem aby zobaczyć nazwę stacji.

Kliknij aby zobaczyć obserwacje i prognozy pogody.

Aby zmienić mapę: kliknij na zielony przycisk z czarnym krzyżykiem, aby powiększyć; na zielony przycisk z myślnikiem, aby pomniejszyć; na zielone strzałki, aby przejść do map sąsiednich.


METAR-TAF: